• Join FlightAware (Why Join?)
  • Login
  • US Flag 
04:31AM EDT


 

Airport Tracker/Info


-or-


 

Live Flight TrackerFlight Track Log ✈ SWA407 ✈ 01-May-2013 ✈ KSFO - KSAN

Flight Track Log - Related Links

Times and Time Zones

All times are in EDT time to prevent confusion due to time zone crossing. See the SWA407 flight status page for this flight to view local times or setup timezone preferences in your user account.

Time Position Orientation Groundspeed Altitude Reporting Facility
EDT Latitude Longitude Course Direction KTS MPH feet Rate Location/Type
11:03PM 37.6333 -122.3667 345° North 150 173 1,200  Level Northern Cal TRACON
11:04PM 37.6833 -122.3833 345° North 220 253 3,600 3,060 Climbing Northern Cal TRACON
11:06PM 37.6789 -122.5406 268° West 283 326 10,700 3,480 Climbing Oakland Center
11:07PM 37.5869 -122.5467 183° South 325 374 14,400 3,420 Climbing Oakland Center
11:08PM 37.4908 -122.5508 182° South 347 399 17,700 2,220 Climbing Oakland Center
11:09PM 37.3858 -122.5544 182° South 373 429 19,000 1,860 Climbing Oakland Center
11:10PM 37.2772 -122.5581 182° South 387 445 21,600 2,580 Climbing Oakland Center
11:11PM 37.1653 -122.5614 181° South 401 461 24,300 2,580 Climbing Oakland Center
11:12PM 37.0481 -122.5694 183° South 419 482 27,000 2,400 Climbing Oakland Center
11:13PM 36.9264 -122.5644 178° South 444 511 29,300 2,220 Climbing Oakland Center
11:14PM 36.8186 -122.4908 151° Southeast 455 524 31,600 2,400 Climbing Oakland Center
11:15PM 36.7058 -122.3697 139° Southeast 449 517 34,300 2,280 Climbing Oakland Center
11:16PM 36.6119 -122.2689 139° Southeast 447 514 36,300 1,320 Climbing Oakland Center
11:17PM 36.5156 -122.1689 140° Southeast 452 520 37,000 300 Climbing Oakland Center
11:18PM 36.4222 -122.0689 139° Southeast 447 514 37,000  Level Oakland Center
11:19PM 36.3281 -121.9700 140° Southeast 444 511 37,000  Level Oakland Center
11:20PM 36.2433 -121.8592 133° Southeast 442 509 37,000  Level Oakland Center
11:21PM 36.1725 -121.7464 128° Southeast 439 505 37,000  Level Oakland Center
11:22PM 36.0969 -121.6264 128° Southeast 442 509 37,000  Level Oakland Center
11:23PM 36.0050 -121.4850 129° Southeast 441 507 37,000  Level Oakland Center
11:24PM 35.9272 -121.3661 129° Southeast 442 509 37,000  Level Oakland Center
11:25PM 35.8506 -121.2486 129° Southeast 442 509 37,000  Level Oakland Center
11:27PM 35.7733 -121.1314 129° Southeast 442 509 37,000  Level Oakland Center
11:28PM 35.6975 -121.0125 128° Southeast 442 509 37,000  Level Oakland Center
11:29PM 35.6200 -120.8961 129° Southeast 442 509 37,000  Level Oakland Center
11:30PM 35.5425 -120.7786 129° Southeast 444 511 37,000  Level Oakland Center
11:31PM 35.4653 -120.6633 129° Southeast 440 506 37,000  Level Oakland Center
11:32PM 35.3875 -120.5475 129° Southeast 443 510 37,000  Level Oakland Center
11:32PM 35.3544 -120.4986 130° Southeast 443 510 37,000  Level Los Angeles Center
11:33PM 35.2758 -120.3778 129° Southeast 450 518 37,000  Level Los Angeles Center
11:34PM 35.1981 -120.2617 129° Southeast 441 507 37,000  Level Los Angeles Center
11:35PM 35.1206 -120.1461 129° Southeast 438 504 37,000  Level Los Angeles Center
11:36PM 35.0353 -120.0194 129° Southeast 440 506 37,000  Level Los Angeles Center
11:37PM 34.9575 -119.9053 130° Southeast 439 505 37,000  Level Los Angeles Center
11:38PM 34.8794 -119.7911 130° Southeast 440 506 37,000  Level Los Angeles Center
11:39PM 34.8017 -119.6764 130° Southeast 439 505 37,000  Level Los Angeles Center
11:40PM 34.7089 -119.5392 129° Southeast 440 506 37,000  Level Los Angeles Center
11:41PM 34.6292 -119.4247 130° Southeast 441 507 37,000  Level Los Angeles Center
11:42PM 34.5517 -119.3172 131° Southeast 439 505 37,000  Level Los Angeles Center
11:43PM 34.4581 -119.1814 130° Southeast 438 504 37,000  Level Los Angeles Center
11:44PM 34.3797 -119.0694 130° Southeast 437 503 37,000  Level Los Angeles Center
11:46PM 34.3011 -118.9567 130° Southeast 438 504 37,000  Level Los Angeles Center
11:47PM 34.2072 -118.8225 130° Southeast 436 502 37,000  Level Los Angeles Center
11:48PM 34.1283 -118.7103 130° Southeast 438 504 37,000  Level Los Angeles Center
11:49PM 34.0500 -118.5983 130° Southeast 436 502 37,000 -420 Level Los Angeles Center
11:50PM 33.9703 -118.4853 130° Southeast 441 507 36,200 -840 Descending Los Angeles Center
11:51PM 33.8872 -118.3711 131° Southeast 448 516 35,300 -900 Descending Los Angeles Center
11:52PM 33.7967 -118.2611 135° Southeast 457 526 34,400 -1,800 Descending Los Angeles Center
11:53PM 33.7067 -118.1411 132° Southeast 458 527 31,700 -2,640 Descending Los Angeles Center
11:54PM 33.6200 -118.0314 133° Southeast 451 519 29,100 -2,580 Descending Los Angeles Center
11:55PM 33.5347 -117.9258 134° Southeast 441 507 26,500 -2,460 Descending Los Angeles Center
11:56PM 33.4553 -117.8247 133° Southeast 419 482 24,100 -2,640 Descending Los Angeles Center
11:56PM 33.4167 -117.7833 138° Southeast 412 474 23,000 -2,820 Descending Southern California TRACON
11:57PM 33.3614 -117.7061 131° Southeast 409 471 21,200 -2,460 Descending Los Angeles Center
11:58PM 33.2667 -117.6000 137° Southeast 390 449 18,400 -2,340 Descending Southern California TRACON
11:59PM 33.2000 -117.5167 134° Southeast 384 442 16,200 -2,160 Descending Southern California TRACON
12:00AM 33.1244 -117.4572 147° Southeast 372 428 14,300 -2,400 Descending Los Angeles Center
12:01AM 33.0431 -117.3925 146° Southeast 359 413 11,600 -2,160 Descending Los Angeles Center
12:02AM 32.9689 -117.3353 147° Southeast 326 375 9,900 -2,040 Descending Los Angeles Center
12:03AM 32.9114 -117.2708 137° Southeast 292 336 7,500 -2,400 Descending Los Angeles Center
12:04AM 32.8464 -117.1928 135° Southeast 279 321 5,100 -1,320 Descending Los Angeles Center
12:05AM 32.7981 -117.1375 136° Southeast 269 310 4,900 -60 Descending Los Angeles Center
12:06AM 32.7667 -117.0500 113° Southeast 224 258 5,000  Climbing Southern California TRACON
12:07AM 32.7500 -116.9833 107° East 217 250 5,000 -540 Level Southern California TRACON
12:08AM 32.7000 -117.0000 196° South 254 292 4,000 -1,320 Descending Southern California TRACON
12:09AM 32.7000 -117.0667 270° West 202 232 2,400 -1,440 Descending Southern California TRACON
12:10AM 32.7167 -117.1167 292° West 156 180 1,100 -960 Descending Southern California TRACON
12:11AM 32.7333 -117.1667 292° West 124 143 500 -480 Descending Southern California TRACON
12:12AM 32.7369 -117.2008 277° West 146 168 200 -300 Descending Los Angeles Center
12:14AM 32.7336 -117.1897 235° Southwest  Level Estimated